Terminal Aerodrome Forecast
Issued by NWS

Home | Current Version | Previous Version | Text Only | Print | Product List | Glossary On
Versions: 1 2 3 4 5 6 7 8 9 10 11 12
879
FTUS42 KMLB 092334
TAFSUA
TAF
KSUA 092334Z 1000/1024 26011KT P6SM SCT050 BKN250
     FM100600 30010KT P6SM SCT050
     FM101400 30013G20KT P6SM FEW050=

USA.gov is the U.S. government's official web portal to all federal, state and local government web resources and services.